createdAt,value
2023-03-29T00:04:05.644Z,-4.20
2023-03-29T00:14:07.635Z,-4.30
2023-03-29T00:24:09.570Z,-4.30
2023-03-29T00:34:11.600Z,-4.50
2023-03-29T00:44:51.144Z,-4.50
2023-03-29T00:54:55.557Z,-4.50
2023-03-29T01:05:11.192Z,-4.60
2023-03-29T01:15:19.159Z,-4.50
2023-03-29T01:25:49.392Z,-4.60
2023-03-29T01:36:09.745Z,-4.70
2023-03-29T01:46:18.947Z,-4.70
2023-03-29T01:56:25.174Z,-4.90
2023-03-29T02:06:30.033Z,-4.70
2023-03-29T02:16:39.237Z,-4.90
2023-03-29T02:26:41.166Z,-4.90
2023-03-29T02:36:49.858Z,-5.00
2023-03-29T02:46:57.065Z,-5.00
2023-03-29T02:57:01.224Z,-5.00
2023-03-29T03:07:03.410Z,-5.10
2023-03-29T03:17:05.418Z,-5.10
2023-03-29T03:27:08.319Z,-5.10
2023-03-29T03:37:10.292Z,-5.20
2023-03-29T03:47:12.691Z,-5.10
2023-03-29T03:57:16.567Z,-5.20
2023-03-29T04:07:24.297Z,-5.00
2023-03-29T04:17:36.300Z,-5.10
2023-03-29T04:28:05.183Z,-5.30
2023-03-29T04:38:30.047Z,-4.90
2023-03-29T04:48:32.024Z,-5.20
2023-03-29T04:58:34.144Z,-5.20
2023-03-29T05:08:37.453Z,-4.90
2023-03-29T05:18:45.577Z,-4.50
2023-03-29T05:28:48.223Z,-4.10
2023-03-29T05:38:50.205Z,-3.30
2023-03-29T05:48:54.601Z,-1.30
2023-03-29T05:59:09.005Z,0.20
2023-03-29T06:09:11.110Z,1.60
2023-03-29T06:19:27.002Z,2.40
2023-03-29T06:29:29.527Z,3.00
2023-03-29T06:39:31.835Z,3.80
2023-03-29T06:49:55.132Z,4.00
2023-03-29T07:00:05.521Z,5.10
2023-03-29T07:10:30.332Z,5.90
2023-03-29T07:20:50.713Z,5.80
2023-03-29T07:30:52.770Z,6.40
2023-03-29T07:40:57.239Z,6.50
2023-03-29T07:51:17.796Z,7.10
2023-03-29T08:01:22.641Z,7.70
2023-03-29T08:11:45.805Z,8.00
2023-03-29T08:22:02.386Z,8.60
2023-03-29T08:32:15.465Z,8.30
2023-03-29T08:42:38.408Z,8.90
2023-03-29T08:52:58.163Z,8.90
2023-03-29T09:03:49.527Z,8.70
2023-03-29T09:14:24.447Z,9.20
2023-03-29T09:24:38.753Z,8.90
2023-03-29T09:34:59.027Z,8.70
2023-03-29T09:45:04.826Z,8.60
2023-03-29T09:55:15.165Z,9.00
2023-03-29T10:05:45.764Z,9.20
2023-03-29T10:16:21.622Z,9.30
2023-03-29T10:26:26.510Z,9.80
2023-03-29T10:36:28.974Z,10.10
2023-03-29T10:46:42.216Z,9.60
2023-03-29T10:56:52.606Z,10.30
2023-03-29T11:07:00.924Z,9.90
2023-03-29T11:17:15.782Z,9.70
2023-03-29T11:27:32.896Z,9.80
2023-03-29T11:38:00.820Z,10.00
2023-03-29T11:48:06.748Z,10.00
2023-03-29T11:58:26.371Z,10.00
2023-03-29T12:08:52.223Z,10.20
2023-03-29T12:19:02.682Z,10.40
2023-03-29T12:29:10.576Z,10.20
2023-03-29T12:39:19.073Z,10.30
2023-03-29T12:49:39.961Z,10.20
2023-03-29T12:59:47.842Z,10.20
2023-03-29T13:09:50.920Z,10.50
2023-03-29T13:20:11.540Z,10.40
2023-03-29T13:30:40.096Z,10.40
2023-03-29T13:41:43.181Z,10.40
2023-03-29T13:51:53.724Z,10.40
2023-03-29T14:01:58.794Z,10.30
2023-03-29T14:12:01.774Z,10.00
2023-03-29T14:22:14.550Z,9.90
2023-03-29T14:32:27.675Z,10.00
2023-03-29T14:42:29.798Z,10.00
2023-03-29T14:52:33.066Z,9.80
2023-03-29T15:02:34.999Z,9.70
2023-03-29T15:12:37.941Z,9.40
2023-03-29T15:22:51.744Z,9.10
2023-03-29T15:32:55.167Z,8.90
2023-03-29T15:42:57.266Z,8.80
2023-03-29T15:53:08.636Z,8.80
2023-03-29T16:03:17.295Z,8.60
2023-03-29T16:13:19.143Z,8.30
2023-03-29T16:23:21.041Z,8.10
2023-03-29T16:33:23.011Z,8.00
2023-03-29T16:43:25.010Z,7.90
2023-03-29T16:53:26.885Z,7.80
2023-03-29T17:03:29.163Z,7.80
2023-03-29T17:13:31.038Z,7.60
2023-03-29T17:23:33.020Z,7.50
2023-03-29T17:33:36.051Z,7.40
2023-03-29T17:43:37.972Z,7.20
2023-03-29T17:53:39.870Z,7.00
2023-03-29T18:03:42.103Z,6.90
2023-03-29T18:13:43.998Z,6.70
2023-03-29T18:23:47.241Z,6.40
2023-03-29T18:33:49.057Z,6.20
2023-03-29T18:43:52.087Z,6.00
2023-03-29T18:53:55.301Z,5.80
2023-03-29T19:03:57.196Z,5.70
2023-03-29T19:13:59.092Z,5.60
2023-03-29T19:24:00.871Z,5.50
2023-03-29T19:34:02.797Z,5.50
2023-03-29T19:44:04.700Z,5.50
2023-03-29T19:54:06.643Z,5.40
2023-03-29T20:04:09.082Z,5.40
2023-03-29T20:14:11.468Z,5.40
2023-03-29T20:24:13.296Z,5.60
2023-03-29T20:34:15.187Z,5.70
2023-03-29T20:44:17.637Z,5.70
2023-03-29T20:54:19.465Z,5.80
2023-03-29T21:04:21.337Z,5.80
2023-03-29T21:14:23.070Z,5.90
2023-03-29T21:24:25.293Z,5.80
2023-03-29T21:34:27.202Z,5.80
2023-03-29T21:44:29.020Z,5.80
2023-03-29T21:54:30.879Z,5.80
2023-03-29T22:04:36.907Z,5.80
2023-03-29T22:14:39.169Z,5.80
2023-03-29T22:24:41.910Z,5.80
2023-03-29T22:34:43.894Z,5.80
2023-03-29T22:44:45.933Z,5.80
2023-03-29T22:54:47.798Z,5.80
2023-03-29T23:04:49.771Z,5.80
2023-03-29T23:14:51.620Z,5.90
2023-03-29T23:24:53.415Z,5.90
2023-03-29T23:34:55.380Z,5.90
2023-03-29T23:44:57.247Z,5.90
2023-03-29T23:54:59.943Z,5.80
